Time;durP1;ratioP1;P1;durP2;ratioP2;P2;SDS_P1;SDS_P2;PMS_P1;PMS_P2;Temp;Humidity;BMP_temperature;BMP_pressure;BME280_temperature;BME280_humidity;BME280_pressure;Samples;Min_cycle;Max_cycle;Signal;HPM_P1;HPM_P2
2023/09/15 00:01:43;;;;;;;;;4.00;4.00;;;;;24.42;45.05;101194.56;4918829;28;45597;-44
2023/09/15 00:04:11;;;;;;;;;4.00;4.00;;;;;24.39;45.12;101196.47;4918674;28;45229;-42
2023/09/15 00:06:37;;;;;;;;;7.00;5.00;;;;;24.39;45.16;101191.16;4918392;28;45761;-41
2023/09/15 00:09:14;;;;;;;;;4.75;4.75;;;;;24.39;45.13;101191.16;4918826;28;45352;-39
2023/09/15 00:11:40;;;;;;;;;5.25;5.25;;;;;24.38;44.89;101184.16;4901549;28;45395;-41
2023/09/15 00:14:07;;;;;;;;;6.50;5.00;;;;;24.39;45.55;101187.66;4918636;28;46134;-42
2023/09/15 00:16:32;;;;;;;;;3.75;3.75;;;;;24.40;45.72;101189.34;4918709;28;45461;-44
2023/09/15 00:18:58;;;;;;;;;5.00;5.00;;;;;24.43;45.70;101188.28;4918538;28;45253;-39
2023/09/15 00:21:23;;;;;;;;;5.00;4.00;;;;;24.46;45.22;101196.03;4918589;28;45375;-39
2023/09/15 00:23:50;;;;;;;;;4.00;4.00;;;;;24.47;45.30;101198.63;4919629;28;57540;-42
2023/09/15 00:26:15;;;;;;;;;5.25;4.25;;;;;24.49;44.96;101193.19;4921599;28;45375;-39
2023/09/15 00:28:40;;;;;;;;;4.75;4.00;;;;;24.52;45.19;101187.72;4921760;28;45418;-41
2023/09/15 00:31:06;;;;;;;;;3.00;3.00;;;;;24.56;45.65;101194.47;4904500;28;52340;-46
2023/09/15 00:33:31;;;;;;;;;4.25;3.25;;;;;24.58;44.98;101189.09;4920808;28;62777;-45
2023/09/15 00:35:56;;;;;;;;;4.00;4.00;;;;;24.59;44.74;101181.03;4920821;28;62878;-39
2023/09/15 00:38:22;;;;;;;;;3.25;3.25;;;;;24.61;45.37;101187.09;4921397;28;45474;-45
2023/09/15 00:40:47;;;;;;;;;4.25;3.25;;;;;24.62;44.93;101180.84;4921625;28;45315;-44
2023/09/15 00:43:12;;;;;;;;;3.75;3.75;;;;;24.64;45.31;101181.56;4921319;28;45731;-42
2023/09/15 00:45:38;;;;;;;;;3.00;3.00;;;;;24.63;45.14;101177.22;4920682;28;66006;-40
2023/09/15 00:48:04;;;;;;;;;4.00;4.00;;;;;24.67;44.60;101178.69;4921737;28;45419;-41
2023/09/15 00:50:31;;;;;;;;;4.00;4.00;;;;;24.67;44.84;101173.41;4921490;28;45582;-42
2023/09/15 00:53:11;;;;;;;;;4.75;4.75;;;;;24.71;44.68;101179.38;4919914;28;45509;-43
2023/09/15 00:55:39;;;;;;;;;4.75;4.75;;;;;24.71;44.94;101179.38;4921479;28;45781;-42
2023/09/15 00:58:11;;;;;;;;;5.00;4.00;;;;;24.70;44.51;101177.66;4921615;28;45287;-44
2023/09/15 01:00:37;;;;;;;;;4.50;4.50;;;;;24.73;45.12;101173.97;4921729;28;45454;-44
2023/09/15 01:03:02;;;;;;;;;6.25;6.00;;;;;24.74;45.18;101184.47;4921030;28;45353;-45
2023/09/15 01:05:29;;;;;;;;;4.00;4.00;;;;;24.76;45.08;101179.06;4921027;28;45378;-42
2023/09/15 01:07:54;;;;;;;;;4.00;4.00;;;;;24.74;44.75;101178.34;4921182;28;45461;-45
2023/09/15 01:10:21;;;;;;;;;4.50;4.00;;;;;24.77;44.68;101172.81;4921177;28;45305;-45
2023/09/15 01:12:48;;;;;;;;;3.50;3.50;;;;;24.76;44.50;101176.41;4920946;28;45646;-43
2023/09/15 01:15:15;;;;;;;;;4.00;4.00;;;;;24.77;44.41;101172.81;4903741;28;45594;-42
2023/09/15 01:17:58;;;;;;;;;6.00;4.25;;;;;24.76;44.49;101166.66;4919821;28;45367;-42
2023/09/15 01:20:42;;;;;;;;;4.00;4.00;;;;;24.76;44.59;101173.75;4920923;28;45189;-43
2023/09/15 01:23:10;;;;;;;;;4.00;4.00;;;;;24.76;44.96;101174.63;4921183;28;46315;-42
2023/09/15 01:25:43;;;;;;;;;4.00;4.00;;;;;24.72;45.15;101170.47;4920943;28;45704;-38
2023/09/15 01:28:19;;;;;;;;;3.75;3.75;;;;;24.72;44.50;101169.63;4919937;28;45307;-41
2023/09/15 01:30:46;;;;;;;;;4.00;4.00;;;;;24.72;45.09;101169.63;4919685;28;45496;-40
2023/09/15 01:33:13;;;;;;;;;4.00;4.00;;;;;24.70;44.88;101172.38;4920740;28;45401;-40
2023/09/15 01:35:38;;;;;;;;;5.00;4.75;;;;;24.68;44.35;101163.66;4919613;28;45707;-46
2023/09/15 01:38:04;;;;;;;;;4.00;4.00;;;;;24.68;45.03;101159.22;4903530;28;45411;-41
2023/09/15 01:40:30;;;;;;;;;5.25;4.00;;;;;24.69;44.66;101160.94;4920815;28;45251;-42
2023/09/15 01:42:55;;;;;;;;;8.00;5.50;;;;;24.69;44.65;101157.44;4920383;28;47471;-44
2023/09/15 01:45:21;;;;;;;;;6.00;4.00;;;;;24.69;45.16;101160.94;4920567;28;45320;-43
2023/09/15 01:47:47;;;;;;;;;4.75;3.25;;;;;24.69;44.59;101152.97;4920724;28;45715;-44
2023/09/15 01:50:15;;;;;;;;;6.25;4.50;;;;;24.70;44.62;101152.03;4920694;28;45398;-44
2023/09/15 01:52:41;;;;;;;;;7.00;4.50;;;;;24.69;44.27;101155.63;4920548;28;45518;-39
2023/09/15 01:55:07;;;;;;;;;3.50;2.50;;;;;24.70;44.64;101152.03;4919145;28;46150;-38
2023/09/15 01:57:32;;;;;;;;;4.25;4.00;;;;;24.71;45.03;101152.88;4920306;28;45458;-42
2023/09/15 02:00:01;;;;;;;;;4.00;4.00;;;;;24.71;44.75;101150.22;4920587;28;45489;-38
2023/09/15 02:02:26;;;;;;;;;6.25;5.25;;;;;24.71;44.37;101152.88;4920185;28;45534;-43
2023/09/15 02:04:51;;;;;;;;;5.00;5.00;;;;;24.72;44.95;101153.72;4920263;28;45246;-40
2023/09/15 02:07:17;;;;;;;;;6.25;5.50;;;;;24.74;44.95;101159.78;4920499;28;45727;-43
2023/09/15 02:09:42;;;;;;;;;6.00;5.25;;;;;24.73;44.59;101158.09;4920573;28;45661;-43
2023/09/15 02:12:08;;;;;;;;;3.50;3.50;;;;;24.73;44.60;101158.91;4920179;28;45476;-44
2023/09/15 02:14:34;;;;;;;;;6.00;4.25;;;;;24.73;44.83;101155.44;4919937;28;45254;-39
2023/09/15 02:17:00;;;;;;;;;4.75;4.00;;;;;24.74;44.61;101150.00;4920119;28;45485;-43
2023/09/15 02:19:25;;;;;;;;;4.50;4.00;;;;;24.76;44.34;101155.19;4920338;28;45371;-42
2023/09/15 02:21:50;;;;;;;;;4.00;4.00;;;;;24.72;44.82;101148.44;4919757;28;47099;-45
2023/09/15 02:24:16;;;;;;;;;4.75;4.00;;;;;24.74;44.61;101152.66;4919980;28;45317;-41
2023/09/15 02:26:41;;;;;;;;;4.25;4.25;;;;;24.72;44.97;101146.63;4902926;28;45485;-42
2023/09/15 02:29:07;;;;;;;;;3.75;3.75;;;;;24.72;44.90;101148.44;4920133;28;45616;-44
2023/09/15 02:31:32;;;;;;;;;5.00;4.00;;;;;24.74;45.05;101149.19;4919574;28;46601;-42
2023/09/15 02:34:00;;;;;;;;;3.00;3.00;;;;;24.71;44.64;101147.56;4919657;28;45426;-43
2023/09/15 02:36:27;;;;;;;;;4.25;4.25;;;;;24.72;44.63;101151.06;4919890;28;45254;-43
2023/09/15 02:38:55;;;;;;;;;4.00;4.00;;;;;24.70;44.79;101145.88;4902801;28;45334;-47
2023/09/15 02:41:22;;;;;;;;;7.25;4.50;;;;;24.70;45.07;101149.38;4919615;28;45414;-40
2023/09/15 02:43:47;;;;;;;;;5.25;5.00;;;;;24.70;44.87;101146.72;4919640;28;45390;-42
2023/09/15 02:46:13;;;;;;;;;4.50;4.50;;;;;24.69;44.37;101144.19;4919640;28;45745;-41
2023/09/15 02:48:41;;;;;;;;;5.50;5.50;;;;;24.68;44.84;101143.31;4919611;28;45371;-41
2023/09/15 02:51:06;;;;;;;;;6.50;4.50;;;;;24.66;44.74;101134.59;4919428;28;46653;-42
2023/09/15 02:53:31;;;;;;;;;6.25;3.50;;;;;24.65;45.11;101138.19;4919404;28;45246;-45
2023/09/15 02:55:59;;;;;;;;;4.00;4.00;;;;;24.62;44.68;101127.81;4919038;28;50079;-44
2023/09/15 02:58:25;;;;;;;;;5.00;5.00;;;;;24.62;44.72;101133.13;4919644;28;45430;-42
2023/09/15 03:00:50;;;;;;;;;4.75;4.75;;;;;24.63;44.95;101132.19;4919371;28;46268;-40
2023/09/15 03:03:16;;;;;;;;;4.25;4.25;;;;;24.62;44.94;101133.13;4919428;28;45398;-41
2023/09/15 03:05:41;;;;;;;;;4.00;4.00;;;;;24.65;44.53;101129.41;4919463;28;46072;-46
2023/09/15 03:08:06;;;;;;;;;6.25;3.00;;;;;24.63;44.38;101134.81;4902382;28;45396;-42
2023/09/15 03:10:34;;;;;;;;;5.25;4.75;;;;;24.66;44.61;101136.41;4918453;28;62765;-44
2023/09/15 03:13:02;;;;;;;;;3.50;3.50;;;;;24.65;44.48;101130.25;4919234;28;45272;-43
2023/09/15 03:15:27;;;;;;;;;6.00;4.75;;;;;24.66;44.87;101129.28;4919218;28;45254;-45
2023/09/15 03:17:53;;;;;;;;;4.75;4.75;;;;;24.66;45.06;101133.75;4919343;28;45328;-42
2023/09/15 03:20:19;;;;;;;;;7.00;5.50;;;;;24.65;44.50;101132.91;4918994;28;46223;-41
2023/09/15 03:22:46;;;;;;;;;4.00;4.00;;;;;24.65;44.85;101130.25;4919310;28;45697;-42
2023/09/15 03:25:14;;;;;;;;;4.00;3.00;;;;;24.63;44.42;101123.38;4902369;28;45822;-44
2023/09/15 03:27:39;;;;;;;;;6.00;5.25;;;;;24.62;44.89;101117.22;4919313;28;45526;-44
2023/09/15 03:30:06;;;;;;;;;3.50;3.50;;;;;24.64;44.47;101125.06;4918674;28;46736;-40
2023/09/15 03:32:32;;;;;;;;;5.75;4.50;;;;;24.62;44.69;101119.88;4918958;28;45720;-44
2023/09/15 03:34:57;;;;;;;;;6.00;3.50;;;;;24.61;44.29;101120.81;4918967;28;45404;-44
2023/09/15 03:37:22;;;;;;;;;7.25;4.50;;;;;24.61;44.70;101118.19;4919223;28;45355;-46
2023/09/15 03:39:48;;;;;;;;;2.50;2.50;;;;;24.61;44.52;101109.34;4918518;28;46195;-41
2023/09/15 03:42:13;;;;;;;;;6.00;5.00;;;;;24.61;44.57;101110.22;4918557;28;62418;-47
2023/09/15 03:44:38;;;;;;;;;4.50;4.00;;;;;24.62;44.66;101103.97;4918808;28;45213;-46
2023/09/15 03:47:04;;;;;;;;;3.25;3.25;;;;;24.61;45.05;101110.22;4919074;28;45681;-46
2023/09/15 03:49:30;;;;;;;;;6.75;4.75;;;;;24.62;44.80;101119.88;4918442;28;53238;-41
2023/09/15 03:51:56;;;;;;;;;2.75;2.75;;;;;24.64;44.66;101114.47;4918598;28;45656;-40
2023/09/15 03:54:23;;;;;;;;;6.00;6.00;;;;;24.65;45.01;101111.69;4918630;28;45423;-41
2023/09/15 03:56:48;;;;;;;;;4.00;4.00;;;;;24.64;45.14;101104.69;4918087;28;45355;-41
2023/09/15 03:59:13;;;;;;;;;6.00;6.00;;;;;24.66;45.27;101108.09;4920706;28;59103;-42
2023/09/15 04:01:39;;;;;;;;;6.75;4.00;;;;;24.65;45.01;101105.56;4904801;28;46054;-40
2023/09/15 04:04:04;;;;;;;;;4.25;4.25;;;;;24.64;44.48;101103.88;4922280;28;45401;-40
2023/09/15 04:06:31;;;;;;;;;4.25;4.00;;;;;24.65;45.24;101102.91;4922229;28;45264;-43
2023/09/15 04:08:57;;;;;;;;;6.25;5.00;;;;;24.64;44.56;101088.78;4921735;28;47162;-41
2023/09/15 04:11:22;;;;;;;;;8.00;4.25;;;;;24.64;45.05;101099.41;4921872;28;45340;-46
2023/09/15 04:13:48;;;;;;;;;6.00;4.25;;;;;24.64;44.71;101087.97;4922223;28;45229;-41
2023/09/15 04:16:13;;;;;;;;;7.00;5.25;;;;;24.62;44.53;101079.25;4922058;28;45628;-45
2023/09/15 04:18:38;;;;;;;;;5.00;4.00;;;;;24.59;45.17;101080.34;4921777;28;45446;-43
2023/09/15 04:21:04;;;;;;;;;5.00;5.00;;;;;24.62;44.58;101079.25;4904352;28;47537;-38
2023/09/15 04:23:30;;;;;;;;;5.00;4.00;;;;;24.62;45.11;101080.13;4921797;28;45382;-45
2023/09/15 04:25:55;;;;;;;;;4.50;4.50;;;;;24.64;45.05;101082.66;4920819;28;45470;-42
2023/09/15 04:28:20;;;;;;;;;6.75;4.00;;;;;24.64;44.52;101072.88;4921781;28;46305;-41
2023/09/15 04:30:46;;;;;;;;;4.50;4.00;;;;;24.64;44.49;101074.72;4921948;28;45366;-43
2023/09/15 04:33:12;;;;;;;;;4.25;4.25;;;;;24.64;44.40;101072.06;4904691;28;45311;-44
2023/09/15 04:35:37;;;;;;;;;5.25;4.00;;;;;24.63;44.42;101075.66;4921706;28;45350;-41
2023/09/15 04:38:03;;;;;;;;;7.00;5.50;;;;;24.61;44.64;101073.13;4921326;28;46055;-45
2023/09/15 04:40:28;;;;;;;;;5.75;3.00;;;;;24.62;45.00;101072.19;4921354;28;45327;-44
2023/09/15 04:42:53;;;;;;;;;6.50;5.00;;;;;24.61;44.49;101073.13;4921683;28;45391;-44
2023/09/15 04:45:19;;;;;;;;;5.00;5.00;;;;;24.60;45.07;101063.47;4921890;28;45251;-42
2023/09/15 04:47:44;;;;;;;;;4.50;4.50;;;;;24.61;44.36;101062.53;4921303;28;45876;-43
2023/09/15 04:50:10;;;;;;;;;4.75;4.75;;;;;24.59;44.50;101061.78;4921260;28;45224;-45
2023/09/15 04:52:36;;;;;;;;;4.25;4.00;;;;;24.60;44.19;101063.47;4921332;28;45246;-40
2023/09/15 04:55:01;;;;;;;;;4.50;4.00;;;;;24.60;44.52;101052.00;4920206;28;45506;-43
2023/09/15 04:57:26;;;;;;;;;4.00;4.00;;;;;24.58;44.95;101056.59;4921287;28;46544;-46
2023/09/15 04:59:53;;;;;;;;;4.50;4.00;;;;;24.58;45.26;101057.44;4921449;28;45301;-41
2023/09/15 05:02:20;;;;;;;;;4.75;4.00;;;;;24.57;44.32;101050.44;4921544;28;45328;-46
2023/09/15 05:04:46;;;;;;;;;6.75;5.00;;;;;24.56;44.76;101059.34;4921441;28;45268;-46
2023/09/15 05:07:11;;;;;;;;;5.75;5.75;;;;;24.55;44.72;101052.34;4920925;28;45370;-46
2023/09/15 05:09:37;;;;;;;;;3.25;3.25;;;;;24.51;44.22;101046.41;4903731;28;45783;-43
2023/09/15 05:12:03;;;;;;;;;6.00;4.00;;;;;24.55;44.92;101061.16;4921070;28;45371;-41
2023/09/15 05:14:30;;;;;;;;;4.25;4.25;;;;;24.56;44.37;101064.63;4921204;28;45430;-45
2023/09/15 05:16:56;;;;;;;;;5.25;5.25;;;;;24.53;44.52;101065.69;4920796;28;46580;-45
2023/09/15 05:19:21;;;;;;;;;5.50;5.50;;;;;24.55;44.48;101078.84;4921162;28;45834;-47
2023/09/15 05:21:46;;;;;;;;;5.00;5.00;;;;;24.53;44.84;101072.78;4920894;28;45380;-46
2023/09/15 05:24:12;;;;;;;;;3.50;3.50;;;;;24.51;44.28;101078.19;4920503;28;53713;-45
2023/09/15 05:26:37;;;;;;;;;4.50;4.25;;;;;24.51;44.75;101077.38;4920740;28;45209;-44
2023/09/15 05:29:03;;;;;;;;;5.00;5.00;;;;;24.52;44.50;101068.47;4920302;28;56425;-44
2023/09/15 05:31:29;;;;;;;;;4.00;4.00;;;;;24.52;44.48;101068.47;4903631;28;45245;-38
2023/09/15 05:33:55;;;;;;;;;6.00;5.75;;;;;24.50;44.38;101075.66;4921351;28;45582;-38
2023/09/15 05:36:21;;;;;;;;;5.25;3.25;;;;;24.47;44.65;101075.88;4920811;28;45415;-38
2023/09/15 05:38:48;;;;;;;;;5.50;5.25;;;;;24.43;45.04;101075.25;4919816;28;45423;-41
2023/09/15 05:41:13;;;;;;;;;5.50;4.50;;;;;24.42;44.57;101078.00;4919317;28;45402;-43
2023/09/15 05:43:39;;;;;;;;;5.00;3.50;;;;;24.42;45.18;101078.00;4920782;28;45362;-43
2023/09/15 05:46:05;;;;;;;;;5.75;5.75;;;;;24.38;44.90;101074.69;4920349;28;46475;-44
2023/09/15 05:48:30;;;;;;;;;5.25;4.50;;;;;24.37;44.95;101076.50;4920513;28;45375;-42
2023/09/15 05:50:55;;;;;;;;;4.25;4.25;;;;;24.35;44.55;101070.47;4920255;28;49263;-41
2023/09/15 05:53:21;;;;;;;;;3.75;3.75;;;;;24.32;45.17;101068.00;4903839;28;45602;-39
2023/09/15 05:55:46;;;;;;;;;5.75;4.00;;;;;24.32;45.12;101069.81;4920121;28;46987;-42
2023/09/15 05:58:12;;;;;;;;;6.00;5.75;;;;;24.29;44.40;101062.06;4919076;28;45539;-42
2023/09/15 06:00:37;;;;;;;;;6.00;5.00;;;;;24.26;45.34;101067.56;4920365;28;45379;-41
2023/09/15 06:03:03;;;;;;;;;4.75;4.00;;;;;24.21;44.77;101066.09;4920301;28;45229;-43
2023/09/15 06:05:28;;;;;;;;;5.75;5.25;;;;;24.21;45.09;101073.19;4919956;28;45345;-39
2023/09/15 06:07:54;;;;;;;;;5.50;5.50;;;;;24.20;44.77;101074.13;4903348;28;45370;-43
2023/09/15 06:10:20;;;;;;;;;5.25;4.25;;;;;24.19;45.21;101067.16;4919149;28;45574;-44
2023/09/15 06:12:49;;;;;;;;;5.00;5.00;;;;;24.24;44.84;101072.97;4920355;28;45478;-45
2023/09/15 06:15:15;;;;;;;;;3.00;3.00;;;;;24.25;45.21;101066.75;4919822;28;46286;-44
2023/09/15 06:17:40;;;;;;;;;7.00;4.00;;;;;24.24;45.46;101065.91;4920048;28;45307;-47
2023/09/15 06:20:06;;;;;;;;;6.00;4.50;;;;;24.29;44.82;101073.53;4919609;28;46706;-47
2023/09/15 06:22:33;;;;;;;;;6.75;4.25;;;;;24.31;45.22;101071.59;4919927;28;45549;-43
2023/09/15 06:24:58;;;;;;;;;6.25;4.50;;;;;24.33;44.69;101072.34;4919900;28;45638;-44
2023/09/15 06:27:23;;;;;;;;;6.00;6.00;;;;;24.33;44.75;101075.00;4920200;28;45895;-44
2023/09/15 06:29:48;;;;;;;;;6.00;4.75;;;;;24.36;44.87;101071.31;4902589;28;46005;-45
2023/09/15 06:32:14;;;;;;;;;6.75;6.00;;;;;24.35;45.03;101067.81;4920098;28;45619;-44
2023/09/15 06:34:39;;;;;;;;;8.00;5.00;;;;;24.36;44.56;101073.97;4919485;28;45552;-44
2023/09/15 06:37:05;;;;;;;;;5.00;4.50;;;;;24.36;45.19;101063.38;4919662;28;45378;-45
2023/09/15 06:39:31;;;;;;;;;6.50;4.00;;;;;24.37;45.07;101071.22;4919761;28;45453;-42
2023/09/15 06:41:56;;;;;;;;;6.25;5.75;;;;;24.37;44.73;101059.75;4920301;28;45558;-39
2023/09/15 06:44:22;;;;;;;;;6.75;4.25;;;;;24.36;44.73;101061.56;4902532;28;47408;-39
2023/09/15 06:46:48;;;;;;;;;7.25;6.00;;;;;24.38;44.66;101061.44;4919422;28;45276;-45
2023/09/15 06:49:14;;;;;;;;;7.25;6.00;;;;;24.38;44.58;101066.75;4919018;28;58007;-45
2023/09/15 06:51:40;;;;;;;;;4.25;4.25;;;;;24.38;44.61;101070.25;4919656;28;45434;-47
2023/09/15 06:54:05;;;;;;;;;9.00;7.00;;;;;24.39;44.41;101065.78;4919276;28;50283;-44
2023/09/15 06:56:31;;;;;;;;;4.25;4.25;;;;;24.37;44.43;101073.84;4919321;28;45315;-42
2023/09/15 06:58:56;;;;;;;;;5.75;5.00;;;;;24.35;44.72;101067.81;4919899;28;45339;-41
2023/09/15 07:01:21;;;;;;;;;4.75;4.75;;;;;24.35;45.13;101075.75;4919134;28;49880;-43
2023/09/15 07:03:47;;;;;;;;;7.75;5.00;;;;;24.34;44.60;101067.94;4919300;28;46180;-44
2023/09/15 07:06:13;;;;;;;;;5.25;5.25;;;;;24.34;44.37;101075.88;4919252;28;45249;-41
2023/09/15 07:08:39;;;;;;;;;7.50;7.00;;;;;24.34;44.62;101067.94;4919378;28;45526;-41
2023/09/15 07:11:04;;;;;;;;;7.00;4.75;;;;;24.36;45.14;101069.50;4919495;28;45300;-44
2023/09/15 07:13:30;;;;;;;;;5.25;5.00;;;;;24.35;44.87;101070.47;4919432;28;45582;-44
2023/09/15 07:15:55;;;;;;;;;4.75;3.00;;;;;24.35;45.08;101065.16;4919326;28;45436;-44
2023/09/15 07:18:20;;;;;;;;;5.50;5.50;;;;;24.33;45.15;101064.41;4919324;28;45839;-42
2023/09/15 07:20:46;;;;;;;;;6.25;6.00;;;;;24.35;45.16;101066.97;4901647;28;48833;-46
2023/09/15 07:23:11;;;;;;;;;6.50;4.00;;;;;24.35;44.76;101067.81;4918976;28;46769;-45
2023/09/15 07:25:36;;;;;;;;;6.00;5.25;;;;;24.35;44.83;101057.22;4918539;28;56577;-42
2023/09/15 07:28:03;;;;;;;;;7.75;6.00;;;;;24.37;44.36;101055.31;4919133;28;45447;-41
2023/09/15 07:30:29;;;;;;;;;7.00;6.00;;;;;24.38;44.39;101056.16;4919485;28;45548;-44
2023/09/15 07:32:57;;;;;;;;;5.00;5.00;;;;;24.39;44.89;101063.16;4900302;28;47369;-47
2023/09/15 07:35:22;;;;;;;;;5.50;4.00;;;;;24.38;44.36;101056.16;4918713;28;45332;-44
2023/09/15 07:37:48;;;;;;;;;7.00;6.00;;;;;24.39;45.13;101053.41;4918974;28;45349;-48
2023/09/15 07:40:13;;;;;;;;;6.75;6.00;;;;;24.38;44.68;101050.84;4918881;28;45618;-44
2023/09/15 07:42:40;;;;;;;;;5.50;5.50;;;;;24.41;44.99;101060.41;4918423;28;47235;-42
2023/09/15 07:45:05;;;;;;;;;7.25;6.50;;;;;24.38;44.37;101051.72;4918726;28;45414;-42
2023/09/15 07:47:32;;;;;;;;;6.00;4.00;;;;;24.38;44.80;101057.00;4918956;28;45477;-44
2023/09/15 07:49:58;;;;;;;;;7.25;5.50;;;;;24.39;44.37;101056.06;4919190;28;45633;-45
2023/09/15 07:52:25;;;;;;;;;8.25;6.25;;;;;24.38;44.35;101041.13;4918571;28;45708;-46
2023/09/15 07:54:50;;;;;;;;;6.25;5.25;;;;;24.39;44.63;101044.59;4901399;28;45746;-47
2023/09/15 07:57:16;;;;;;;;;7.00;5.25;;;;;24.39;44.23;101039.31;4918760;28;45391;-43
2023/09/15 07:59:41;;;;;;;;;4.50;4.25;;;;;24.41;44.87;101034.75;4918808;28;45218;-41
2023/09/15 08:02:06;;;;;;;;;3.25;3.25;;;;;24.42;44.48;101031.16;4917896;28;60657;-47
2023/09/15 08:04:32;;;;;;;;;6.00;5.50;;;;;24.43;44.52;101029.34;4918376;28;57032;-44
2023/09/15 08:06:57;;;;;;;;;8.00;6.50;;;;;24.44;44.84;101023.09;4918703;28;45292;-42
2023/09/15 08:09:23;;;;;;;;;4.75;4.75;;;;;24.45;44.65;101023.00;4918680;28;45189;-47
2023/09/15 08:11:48;;;;;;;;;7.50;6.00;;;;;24.46;44.32;101023.84;4918516;28;46161;-47
2023/09/15 08:14:13;;;;;;;;;8.00;5.25;;;;;24.48;44.30;101024.59;4918503;28;45277;-43
2023/09/15 08:16:39;;;;;;;;;7.00;5.50;;;;;24.49;44.36;101023.63;4918411;28;45399;-42
2023/09/15 08:19:04;;;;;;;;;4.75;4.75;;;;;24.51;44.54;101024.38;4918520;28;45341;-43
2023/09/15 08:21:30;;;;;;;;;8.00;5.00;;;;;24.52;44.56;101018.13;4901546;28;45905;-44
2023/09/15 08:23:55;;;;;;;;;7.25;5.75;;;;;24.54;44.90;101024.13;4918234;28;45447;-42
2023/09/15 08:26:21;;;;;;;;;8.25;5.75;;;;;24.55;44.95;101021.41;4918305;28;45886;-43
2023/09/15 08:28:46;;;;;;;;;4.75;4.00;;;;;24.56;44.88;101027.53;4918588;28;45420;-41
2023/09/15 08:31:11;;;;;;;;;5.00;5.00;;;;;24.59;44.62;101031.75;4917941;28;45402;-42
2023/09/15 08:33:37;;;;;;;;;7.00;5.75;;;;;24.59;44.26;101026.47;4918276;28;45466;-38
